sensor_id;sensor_type;location;lat;lon;timestamp;P1;durP1;ratioP1;P2;durP2;ratioP2
18653;SDS011;9456;47.824;16.228;2024-02-23T00:01:12;0.70;;;0.70;;
18653;SDS011;9456;47.824;16.228;2024-02-23T00:03:40;1.10;;;0.80;;
18653;SDS011;9456;47.824;16.228;2024-02-23T00:06:11;0.70;;;0.70;;
18653;SDS011;9456;47.824;16.228;2024-02-23T00:08:39;0.80;;;0.80;;
18653;SDS011;9456;47.824;16.228;2024-02-23T00:11:07;0.50;;;0.50;;
18653;SDS011;9456;47.824;16.228;2024-02-23T00:13:36;1.13;;;0.70;;
18653;SDS011;9456;47.824;16.228;2024-02-23T00:16:05;0.60;;;0.60;;
18653;SDS011;9456;47.824;16.228;2024-02-23T00:18:33;0.97;;;0.80;;
18653;SDS011;9456;47.824;16.228;2024-02-23T00:21:03;0.33;;;0.33;;
18653;SDS011;9456;47.824;16.228;2024-02-23T00:23:32;0.60;;;0.60;;
18653;SDS011;9456;47.824;16.228;2024-02-23T00:26:06;0.60;;;0.60;;
18653;SDS011;9456;47.824;16.228;2024-02-23T00:28:36;0.70;;;0.70;;
18653;SDS011;9456;47.824;16.228;2024-02-23T00:31:04;0.37;;;0.37;;
18653;SDS011;9456;47.824;16.228;2024-02-23T00:33:32;0.40;;;0.40;;
18653;SDS011;9456;47.824;16.228;2024-02-23T00:36:01;0.37;;;0.37;;
18653;SDS011;9456;47.824;16.228;2024-02-23T00:44:24;0.57;;;0.57;;
18653;SDS011;9456;47.824;16.228;2024-02-23T00:46:53;0.30;;;0.30;;
18653;SDS011;9456;47.824;16.228;2024-02-23T00:49:31;0.40;;;0.40;;
18653;SDS011;9456;47.824;16.228;2024-02-23T00:51:59;0.60;;;0.40;;
18653;SDS011;9456;47.824;16.228;2024-02-23T00:54:27;0.30;;;0.30;;
18653;SDS011;9456;47.824;16.228;2024-02-23T00:59:42;0.57;;;0.57;;
18653;SDS011;9456;47.824;16.228;2024-02-23T01:02:11;0.30;;;0.30;;
18653;SDS011;9456;47.824;16.228;2024-02-23T01:07:15;0.30;;;0.30;;
18653;SDS011;9456;47.824;16.228;2024-02-23T01:09:46;0.53;;;0.53;;
18653;SDS011;9456;47.824;16.228;2024-02-23T01:12:14;0.30;;;0.30;;
18653;SDS011;9456;47.824;16.228;2024-02-23T01:14:43;0.33;;;0.33;;
18653;SDS011;9456;47.824;16.228;2024-02-23T01:17:14;0.30;;;0.30;;
18653;SDS011;9456;47.824;16.228;2024-02-23T01:19:48;0.37;;;0.30;;
18653;SDS011;9456;47.824;16.228;2024-02-23T01:22:20;0.33;;;0.33;;
18653;SDS011;9456;47.824;16.228;2024-02-23T01:24:48;0.40;;;0.40;;
18653;SDS011;9456;47.824;16.228;2024-02-23T01:27:21;0.40;;;0.40;;
18653;SDS011;9456;47.824;16.228;2024-02-23T01:29:51;0.60;;;0.60;;
18653;SDS011;9456;47.824;16.228;2024-02-23T01:32:19;0.50;;;0.50;;
18653;SDS011;9456;47.824;16.228;2024-02-23T01:34:50;0.40;;;0.40;;
18653;SDS011;9456;47.824;16.228;2024-02-23T01:37:19;0.43;;;0.43;;
18653;SDS011;9456;47.824;16.228;2024-02-23T01:39:47;0.30;;;0.30;;
18653;SDS011;9456;47.824;16.228;2024-02-23T01:53:30;0.30;;;0.30;;
18653;SDS011;9456;47.824;16.228;2024-02-23T01:55:59;0.20;;;0.20;;
18653;SDS011;9456;47.824;16.228;2024-02-23T01:58:34;0.40;;;0.40;;
18653;SDS011;9456;47.824;16.228;2024-02-23T02:01:05;1.33;;;0.30;;
18653;SDS011;9456;47.824;16.228;2024-02-23T02:06:21;0.40;;;0.40;;
18653;SDS011;9456;47.824;16.228;2024-02-23T02:14:44;0.40;;;0.40;;
18653;SDS011;9456;47.824;16.228;2024-02-23T02:17:12;0.30;;;0.30;;
18653;SDS011;9456;47.824;16.228;2024-02-23T02:19:45;0.40;;;0.40;;
18653;SDS011;9456;47.824;16.228;2024-02-23T02:24:56;0.33;;;0.33;;
18653;SDS011;9456;47.824;16.228;2024-02-23T02:27:28;0.50;;;0.50;;
18653;SDS011;9456;47.824;16.228;2024-02-23T02:29:56;0.30;;;0.30;;
18653;SDS011;9456;47.824;16.228;2024-02-23T02:32:24;0.30;;;0.30;;
18653;SDS011;9456;47.824;16.228;2024-02-23T02:38:01;0.23;;;0.23;;
18653;SDS011;9456;47.824;16.228;2024-02-23T02:40:29;0.63;;;0.33;;
18653;SDS011;9456;47.824;16.228;2024-02-23T02:43:00;0.50;;;0.50;;
18653;SDS011;9456;47.824;16.228;2024-02-23T02:45:29;0.57;;;0.50;;
18653;SDS011;9456;47.824;16.228;2024-02-23T02:50:44;0.33;;;0.33;;
18653;SDS011;9456;47.824;16.228;2024-02-23T02:53:13;0.50;;;0.30;;
18653;SDS011;9456;47.824;16.228;2024-02-23T02:55:42;0.23;;;0.23;;
18653;SDS011;9456;47.824;16.228;2024-02-23T02:58:10;0.40;;;0.40;;
18653;SDS011;9456;47.824;16.228;2024-02-23T03:03:27;0.47;;;0.47;;
18653;SDS011;9456;47.824;16.228;2024-02-23T03:05:55;0.40;;;0.40;;
18653;SDS011;9456;47.824;16.228;2024-02-23T03:08:24;0.27;;;0.27;;
18653;SDS011;9456;47.824;16.228;2024-02-23T03:16:54;0.50;;;0.50;;
18653;SDS011;9456;47.824;16.228;2024-02-23T03:19:22;0.23;;;0.23;;
18653;SDS011;9456;47.824;16.228;2024-02-23T03:21:50;0.20;;;0.20;;
18653;SDS011;9456;47.824;16.228;2024-02-23T03:24:18;0.40;;;0.40;;
18653;SDS011;9456;47.824;16.228;2024-02-23T03:26:47;0.30;;;0.30;;
18653;SDS011;9456;47.824;16.228;2024-02-23T03:29:16;1.73;;;0.50;;
18653;SDS011;9456;47.824;16.228;2024-02-23T03:31:44;0.30;;;0.30;;
18653;SDS011;9456;47.824;16.228;2024-02-23T03:34:12;0.30;;;0.30;;
18653;SDS011;9456;47.824;16.228;2024-02-23T03:36:43;0.40;;;0.40;;
18653;SDS011;9456;47.824;16.228;2024-02-23T03:39:11;0.30;;;0.30;;
18653;SDS011;9456;47.824;16.228;2024-02-23T03:41:39;0.30;;;0.30;;
18653;SDS011;9456;47.824;16.228;2024-02-23T03:44:07;0.23;;;0.23;;
18653;SDS011;9456;47.824;16.228;2024-02-23T03:46:35;0.30;;;0.30;;
18653;SDS011;9456;47.824;16.228;2024-02-23T03:49:04;0.30;;;0.30;;
18653;SDS011;9456;47.824;16.228;2024-02-23T03:51:32;0.27;;;0.27;;
18653;SDS011;9456;47.824;16.228;2024-02-23T03:54:03;0.33;;;0.33;;
18653;SDS011;9456;47.824;16.228;2024-02-23T03:56:50;0.20;;;0.20;;
18653;SDS011;9456;47.824;16.228;2024-02-23T03:59:21;0.30;;;0.30;;
18653;SDS011;9456;47.824;16.228;2024-02-23T04:01:49;0.30;;;0.30;;
18653;SDS011;9456;47.824;16.228;2024-02-23T04:06:50;1.07;;;0.50;;
18653;SDS011;9456;47.824;16.228;2024-02-23T04:09:22;0.70;;;0.47;;
18653;SDS011;9456;47.824;16.228;2024-02-23T04:11:50;0.47;;;0.47;;
18653;SDS011;9456;47.824;16.228;2024-02-23T04:14:29;2.40;;;0.80;;
18653;SDS011;9456;47.824;16.228;2024-02-23T04:16:58;0.50;;;0.50;;
18653;SDS011;9456;47.824;16.228;2024-02-23T04:19:26;0.40;;;0.40;;
18653;SDS011;9456;47.824;16.228;2024-02-23T04:24:30;2.27;;;0.80;;
18653;SDS011;9456;47.824;16.228;2024-02-23T04:26:59;1.00;;;1.00;;
18653;SDS011;9456;47.824;16.228;2024-02-23T04:29:28;1.87;;;1.20;;
18653;SDS011;9456;47.824;16.228;2024-02-23T04:31:56;2.33;;;1.80;;
18653;SDS011;9456;47.824;16.228;2024-02-23T04:34:27;2.07;;;1.87;;
18653;SDS011;9456;47.824;16.228;2024-02-23T04:44:26;0.90;;;0.90;;
18653;SDS011;9456;47.824;16.228;2024-02-23T04:46:54;0.97;;;0.97;;
18653;SDS011;9456;47.824;16.228;2024-02-23T04:49:23;0.50;;;0.50;;
18653;SDS011;9456;47.824;16.228;2024-02-23T04:51:51;0.40;;;0.40;;
18653;SDS011;9456;47.824;16.228;2024-02-23T04:57:08;0.33;;;0.30;;
18653;SDS011;9456;47.824;16.228;2024-02-23T04:59:36;0.60;;;0.43;;
18653;SDS011;9456;47.824;16.228;2024-02-23T05:02:04;0.57;;;0.57;;
18653;SDS011;9456;47.824;16.228;2024-02-23T05:07:09;0.27;;;0.27;;
18653;SDS011;9456;47.824;16.228;2024-02-23T05:09:37;0.20;;;0.20;;
18653;SDS011;9456;47.824;16.228;2024-02-23T05:18:00;0.20;;;0.20;;
18653;SDS011;9456;47.824;16.228;2024-02-23T05:20:29;1.45;;;0.20;;
18653;SDS011;9456;47.824;16.228;2024-02-23T05:26:03;0.30;;;0.30;;
18653;SDS011;9456;47.824;16.228;2024-02-23T05:28:31;0.30;;;0.30;;
18653;SDS011;9456;47.824;16.228;2024-02-23T05:37:10;0.70;;;0.40;;
18653;SDS011;9456;47.824;16.228;2024-02-23T05:42:14;1.93;;;1.40;;
18653;SDS011;9456;47.824;16.228;2024-02-23T05:44:49;1.83;;;1.70;;
18653;SDS011;9456;47.824;16.228;2024-02-23T05:47:17;2.17;;;1.93;;
18653;SDS011;9456;47.824;16.228;2024-02-23T05:49:49;4.20;;;1.90;;
18653;SDS011;9456;47.824;16.228;2024-02-23T05:52:16;1.57;;;1.40;;
18653;SDS011;9456;47.824;16.228;2024-02-23T05:57:25;1.10;;;1.00;;
18653;SDS011;9456;47.824;16.228;2024-02-23T05:59:53;3.77;;;0.77;;
18653;SDS011;9456;47.824;16.228;2024-02-23T06:02:22;1.63;;;1.00;;
18653;SDS011;9456;47.824;16.228;2024-02-23T06:07:19;2.27;;;1.10;;
18653;SDS011;9456;47.824;16.228;2024-02-23T06:09:50;2.13;;;0.80;;
18653;SDS011;9456;47.824;16.228;2024-02-23T06:12:18;1.30;;;0.70;;
18653;SDS011;9456;47.824;16.228;2024-02-23T06:20:04;0.57;;;0.57;;
18653;SDS011;9456;47.824;16.228;2024-02-23T06:22:50;0.70;;;0.70;;
18653;SDS011;9456;47.824;16.228;2024-02-23T06:25:18;0.80;;;0.80;;
18653;SDS011;9456;47.824;16.228;2024-02-23T06:27:46;1.00;;;1.00;;
18653;SDS011;9456;47.824;16.228;2024-02-23T06:30:14;2.03;;;1.43;;
18653;SDS011;9456;47.824;16.228;2024-02-23T06:32:43;1.17;;;1.07;;
18653;SDS011;9456;47.824;16.228;2024-02-23T06:35:11;2.07;;;1.87;;
18653;SDS011;9456;47.824;16.228;2024-02-23T06:37:39;2.50;;;2.30;;
18653;SDS011;9456;47.824;16.228;2024-02-23T06:40:08;2.97;;;2.20;;
18653;SDS011;9456;47.824;16.228;2024-02-23T06:42:37;2.03;;;1.87;;
18653;SDS011;9456;47.824;16.228;2024-02-23T06:45:06;1.53;;;1.33;;
18653;SDS011;9456;47.824;16.228;2024-02-23T06:47:35;2.73;;;1.13;;
18653;SDS011;9456;47.824;16.228;2024-02-23T06:50:04;3.80;;;1.13;;
18653;SDS011;9456;47.824;16.228;2024-02-23T06:52:32;0.93;;;0.93;;
18653;SDS011;9456;47.824;16.228;2024-02-23T06:55:04;1.37;;;0.80;;
18653;SDS011;9456;47.824;16.228;2024-02-23T06:57:32;1.87;;;1.40;;
18653;SDS011;9456;47.824;16.228;2024-02-23T07:00:00;1.73;;;1.00;;
18653;SDS011;9456;47.824;16.228;2024-02-23T07:02:32;2.17;;;1.33;;
18653;SDS011;9456;47.824;16.228;2024-02-23T07:05:00;2.30;;;1.67;;
18653;SDS011;9456;47.824;16.228;2024-02-23T07:07:28;2.27;;;2.07;;
18653;SDS011;9456;47.824;16.228;2024-02-23T07:09:56;1.60;;;1.50;;
18653;SDS011;9456;47.824;16.228;2024-02-23T07:12:24;1.60;;;1.50;;
18653;SDS011;9456;47.824;16.228;2024-02-23T07:14:52;1.87;;;1.33;;
18653;SDS011;9456;47.824;16.228;2024-02-23T07:17:20;1.60;;;1.50;;
18653;SDS011;9456;47.824;16.228;2024-02-23T07:19:48;1.50;;;1.40;;
18653;SDS011;9456;47.824;16.228;2024-02-23T07:22:16;2.07;;;1.87;;
18653;SDS011;9456;47.824;16.228;2024-02-23T07:27:14;1.70;;;1.60;;
18653;SDS011;9456;47.824;16.228;2024-02-23T07:29:42;1.17;;;1.13;;
18653;SDS011;9456;47.824;16.228;2024-02-23T07:32:10;1.27;;;1.20;;
18653;SDS011;9456;47.824;16.228;2024-02-23T07:34:38;1.63;;;1.17;;
18653;SDS011;9456;47.824;16.228;2024-02-23T07:37:08;1.47;;;1.40;;
18653;SDS011;9456;47.824;16.228;2024-02-23T07:39:36;1.20;;;1.20;;
18653;SDS011;9456;47.824;16.228;2024-02-23T07:42:04;1.40;;;1.30;;
18653;SDS011;9456;47.824;16.228;2024-02-23T07:44:33;1.17;;;1.00;;
18653;SDS011;9456;47.824;16.228;2024-02-23T07:47:01;1.97;;;1.30;;
18653;SDS011;9456;47.824;16.228;2024-02-23T07:49:29;1.10;;;1.00;;
18653;SDS011;9456;47.824;16.228;2024-02-23T07:51:57;6.80;;;4.17;;
18653;SDS011;9456;47.824;16.228;2024-02-23T07:54:25;3.20;;;2.60;;
18653;SDS011;9456;47.824;16.228;2024-02-23T07:56:54;2.20;;;2.10;;
18653;SDS011;9456;47.824;16.228;2024-02-23T07:59:24;2.03;;;1.83;;
18653;SDS011;9456;47.824;16.228;2024-02-23T08:01:52;2.30;;;2.10;;
18653;SDS011;9456;47.824;16.228;2024-02-23T08:04:20;1.83;;;1.70;;
18653;SDS011;9456;47.824;16.228;2024-02-23T08:06:48;1.70;;;1.60;;
18653;SDS011;9456;47.824;16.228;2024-02-23T08:09:16;2.30;;;1.63;;
18653;SDS011;9456;47.824;16.228;2024-02-23T08:11:44;1.00;;;1.00;;
18653;SDS011;9456;47.824;16.228;2024-02-23T08:14:12;1.13;;;1.03;;
18653;SDS011;9456;47.824;16.228;2024-02-23T08:16:40;1.80;;;0.90;;
18653;SDS011;9456;47.824;16.228;2024-02-23T08:19:08;1.10;;;1.00;;
18653;SDS011;9456;47.824;16.228;2024-02-23T08:21:36;2.20;;;0.90;;
18653;SDS011;9456;47.824;16.228;2024-02-23T08:24:05;0.77;;;0.77;;
18653;SDS011;9456;47.824;16.228;2024-02-23T08:26:33;2.33;;;1.00;;
18653;SDS011;9456;47.824;16.228;2024-02-23T08:29:01;1.10;;;1.00;;
18653;SDS011;9456;47.824;16.228;2024-02-23T08:31:29;1.33;;;1.23;;
18653;SDS011;9456;47.824;16.228;2024-02-23T08:33:57;1.10;;;1.10;;
18653;SDS011;9456;47.824;16.228;2024-02-23T08:36:25;1.30;;;1.00;;
18653;SDS011;9456;47.824;16.228;2024-02-23T08:38:53;2.27;;;0.97;;
18653;SDS011;9456;47.824;16.228;2024-02-23T08:41:21;1.97;;;0.83;;
18653;SDS011;9456;47.824;16.228;2024-02-23T08:43:50;0.87;;;0.87;;
18653;SDS011;9456;47.824;16.228;2024-02-23T08:46:18;2.23;;;1.10;;
18653;SDS011;9456;47.824;16.228;2024-02-23T08:48:46;0.87;;;0.87;;
18653;SDS011;9456;47.824;16.228;2024-02-23T08:51:14;1.37;;;0.90;;
18653;SDS011;9456;47.824;16.228;2024-02-23T08:53:42;1.00;;;1.00;;
18653;SDS011;9456;47.824;16.228;2024-02-23T08:56:12;1.10;;;1.10;;
18653;SDS011;9456;47.824;16.228;2024-02-23T08:58:41;1.50;;;1.30;;
18653;SDS011;9456;47.824;16.228;2024-02-23T09:01:09;1.00;;;1.00;;
18653;SDS011;9456;47.824;16.228;2024-02-23T09:03:40;1.90;;;1.17;;
18653;SDS011;9456;47.824;16.228;2024-02-23T09:06:08;0.80;;;0.80;;
18653;SDS011;9456;47.824;16.228;2024-02-23T09:08:36;1.53;;;1.43;;
18653;SDS011;9456;47.824;16.228;2024-02-23T09:11:06;1.57;;;1.43;;
18653;SDS011;9456;47.824;16.228;2024-02-23T09:13:34;2.37;;;2.17;;
18653;SDS011;9456;47.824;16.228;2024-02-23T09:16:02;5.43;;;3.60;;
18653;SDS011;9456;47.824;16.228;2024-02-23T09:18:30;4.73;;;1.93;;
18653;SDS011;9456;47.824;16.228;2024-02-23T09:20:59;4.10;;;1.90;;
18653;SDS011;9456;47.824;16.228;2024-02-23T09:23:26;2.20;;;2.00;;
18653;SDS011;9456;47.824;16.228;2024-02-23T09:25:54;1.80;;;1.70;;
18653;SDS011;9456;47.824;16.228;2024-02-23T09:28:22;3.87;;;1.80;;
18653;SDS011;9456;47.824;16.228;2024-02-23T09:30:50;1.40;;;1.27;;
18653;SDS011;9456;47.824;16.228;2024-02-23T09:35:55;1.50;;;1.30;;
18653;SDS011;9456;47.824;16.228;2024-02-23T09:38:25;1.20;;;1.20;;
18653;SDS011;9456;47.824;16.228;2024-02-23T09:40:54;1.60;;;1.50;;
18653;SDS011;9456;47.824;16.228;2024-02-23T09:43:22;1.20;;;1.20;;
18653;SDS011;9456;47.824;16.228;2024-02-23T09:45:51;4.33;;;3.50;;
18653;SDS011;9456;47.824;16.228;2024-02-23T09:48:19;15.13;;;12.47;;
18653;SDS011;9456;47.824;16.228;2024-02-23T09:50:48;2.13;;;1.50;;
18653;SDS011;9456;47.824;16.228;2024-02-23T09:53:19;2.30;;;1.80;;
18653;SDS011;9456;47.824;16.228;2024-02-23T09:55:47;1.80;;;1.70;;
18653;SDS011;9456;47.824;16.228;2024-02-23T09:58:15;4.67;;;3.67;;
18653;SDS011;9456;47.824;16.228;2024-02-23T10:00:43;2.77;;;1.80;;
18653;SDS011;9456;47.824;16.228;2024-02-23T10:03:12;2.77;;;2.57;;
18653;SDS011;9456;47.824;16.228;2024-02-23T10:05:40;4.53;;;3.00;;
18653;SDS011;9456;47.824;16.228;2024-02-23T10:08:11;2.33;;;2.20;;
18653;SDS011;9456;47.824;16.228;2024-02-23T10:10:39;3.40;;;2.20;;
18653;SDS011;9456;47.824;16.228;2024-02-23T10:13:08;3.03;;;2.50;;
18653;SDS011;9456;47.824;16.228;2024-02-23T10:15:36;5.77;;;2.20;;
18653;SDS011;9456;47.824;16.228;2024-02-23T10:18:04;1.93;;;1.27;;
18653;SDS011;9456;47.824;16.228;2024-02-23T10:20:32;6.40;;;1.90;;
18653;SDS011;9456;47.824;16.228;2024-02-23T10:23:00;3.50;;;2.20;;
18653;SDS011;9456;47.824;16.228;2024-02-23T10:25:28;2.70;;;1.97;;
18653;SDS011;9456;47.824;16.228;2024-02-23T10:27:56;1.30;;;1.20;;
18653;SDS011;9456;47.824;16.228;2024-02-23T10:30:24;2.77;;;2.10;;
18653;SDS011;9456;47.824;16.228;2024-02-23T10:32:52;2.43;;;2.23;;
18653;SDS011;9456;47.824;16.228;2024-02-23T10:35:20;2.03;;;1.93;;
18653;SDS011;9456;47.824;16.228;2024-02-23T10:37:49;3.53;;;3.23;;
18653;SDS011;9456;47.824;16.228;2024-02-23T10:40:17;2.07;;;1.80;;
18653;SDS011;9456;47.824;16.228;2024-02-23T10:42:45;1.70;;;1.60;;
18653;SDS011;9456;47.824;16.228;2024-02-23T10:45:20;1.30;;;1.20;;
18653;SDS011;9456;47.824;16.228;2024-02-23T10:48:07;0.90;;;0.90;;
18653;SDS011;9456;47.824;16.228;2024-02-23T10:50:36;0.90;;;0.90;;
18653;SDS011;9456;47.824;16.228;2024-02-23T10:53:05;0.97;;;0.93;;
18653;SDS011;9456;47.824;16.228;2024-02-23T10:55:33;1.10;;;1.10;;
18653;SDS011;9456;47.824;16.228;2024-02-23T10:58:01;1.37;;;1.37;;
18653;SDS011;9456;47.824;16.228;2024-02-23T11:00:34;1.30;;;1.30;;
18653;SDS011;9456;47.824;16.228;2024-02-23T11:03:07;1.00;;;1.00;;
18653;SDS011;9456;47.824;16.228;2024-02-23T11:08:28;1.00;;;1.00;;
18653;SDS011;9456;47.824;16.228;2024-02-23T11:10:56;1.20;;;1.10;;
18653;SDS011;9456;47.824;16.228;2024-02-23T11:18:44;1.30;;;1.30;;
18653;SDS011;9456;47.824;16.228;2024-02-23T11:21:13;1.30;;;1.20;;
18653;SDS011;9456;47.824;16.228;2024-02-23T11:23:42;1.30;;;1.20;;
18653;SDS011;9456;47.824;16.228;2024-02-23T11:26:12;1.57;;;1.47;;
18653;SDS011;9456;47.824;16.228;2024-02-23T11:31:15;1.70;;;1.53;;
18653;SDS011;9456;47.824;16.228;2024-02-23T11:36:51;1.27;;;1.17;;
18653;SDS011;9456;47.824;16.228;2024-02-23T11:39:23;1.50;;;1.40;;
18653;SDS011;9456;47.824;16.228;2024-02-23T11:41:54;1.50;;;1.40;;
18653;SDS011;9456;47.824;16.228;2024-02-23T11:44:25;1.70;;;1.60;;
18653;SDS011;9456;47.824;16.228;2024-02-23T11:46:54;1.70;;;1.60;;
18653;SDS011;9456;47.824;16.228;2024-02-23T11:52:10;1.70;;;1.60;;
18653;SDS011;9456;47.824;16.228;2024-02-23T11:54:38;1.40;;;1.40;;
18653;SDS011;9456;47.824;16.228;2024-02-23T11:57:06;1.60;;;1.50;;
18653;SDS011;9456;47.824;16.228;2024-02-23T11:59:35;1.60;;;1.50;;
18653;SDS011;9456;47.824;16.228;2024-02-23T12:02:03;1.40;;;1.40;;
18653;SDS011;9456;47.824;16.228;2024-02-23T12:04:33;1.60;;;1.50;;
18653;SDS011;9456;47.824;16.228;2024-02-23T12:07:01;2.60;;;1.60;;
18653;SDS011;9456;47.824;16.228;2024-02-23T12:09:29;1.70;;;1.60;;
18653;SDS011;9456;47.824;16.228;2024-02-23T12:11:57;1.60;;;1.50;;
18653;SDS011;9456;47.824;16.228;2024-02-23T12:14:26;2.13;;;1.97;;
18653;SDS011;9456;47.824;16.228;2024-02-23T12:16:54;2.40;;;2.27;;
18653;SDS011;9456;47.824;16.228;2024-02-23T12:19:22;2.50;;;2.30;;
18653;SDS011;9456;47.824;16.228;2024-02-23T12:21:50;2.10;;;2.00;;
18653;SDS011;9456;47.824;16.228;2024-02-23T12:24:18;2.40;;;2.20;;
18653;SDS011;9456;47.824;16.228;2024-02-23T12:26:46;2.30;;;2.20;;
18653;SDS011;9456;47.824;16.228;2024-02-23T12:29:15;2.30;;;2.20;;
18653;SDS011;9456;47.824;16.228;2024-02-23T12:31:43;2.30;;;2.20;;
18653;SDS011;9456;47.824;16.228;2024-02-23T12:34:12;2.43;;;2.30;;
18653;SDS011;9456;47.824;16.228;2024-02-23T12:36:42;2.23;;;2.10;;
18653;SDS011;9456;47.824;16.228;2024-02-23T12:39:10;2.77;;;2.10;;
18653;SDS011;9456;47.824;16.228;2024-02-23T12:41:40;2.30;;;2.20;;
18653;SDS011;9456;47.824;16.228;2024-02-23T12:44:08;2.50;;;2.30;;
18653;SDS011;9456;47.824;16.228;2024-02-23T12:46:37;2.60;;;2.40;;
18653;SDS011;9456;47.824;16.228;2024-02-23T12:51:54;2.53;;;2.20;;
18653;SDS011;9456;47.824;16.228;2024-02-23T12:54:25;2.30;;;2.20;;
18653;SDS011;9456;47.824;16.228;2024-02-23T12:59:22;2.90;;;2.20;;
18653;SDS011;9456;47.824;16.228;2024-02-23T13:01:50;2.47;;;2.27;;
18653;SDS011;9456;47.824;16.228;2024-02-23T13:04:18;3.13;;;2.47;;
18653;SDS011;9456;47.824;16.228;2024-02-23T13:09:54;2.93;;;1.70;;
18653;SDS011;9456;47.824;16.228;2024-02-23T13:12:28;1.20;;;1.20;;
18653;SDS011;9456;47.824;16.228;2024-02-23T13:14:56;3.13;;;1.20;;
18653;SDS011;9456;47.824;16.228;2024-02-23T13:17:24;2.20;;;1.40;;
18653;SDS011;9456;47.824;16.228;2024-02-23T13:19:55;1.43;;;1.33;;
18653;SDS011;9456;47.824;16.228;2024-02-23T13:22:23;1.53;;;1.43;;
18653;SDS011;9456;47.824;16.228;2024-02-23T13:24:51;1.47;;;1.37;;
18653;SDS011;9456;47.824;16.228;2024-02-23T13:27:19;1.20;;;1.20;;
18653;SDS011;9456;47.824;16.228;2024-02-23T13:29:47;1.40;;;1.30;;
18653;SDS011;9456;47.824;16.228;2024-02-23T13:32:15;1.30;;;1.20;;
18653;SDS011;9456;47.824;16.228;2024-02-23T13:34:43;1.40;;;1.30;;
18653;SDS011;9456;47.824;16.228;2024-02-23T13:37:11;1.63;;;1.50;;
18653;SDS011;9456;47.824;16.228;2024-02-23T13:39:41;1.30;;;1.20;;
18653;SDS011;9456;47.824;16.228;2024-02-23T13:42:09;3.17;;;1.50;;
18653;SDS011;9456;47.824;16.228;2024-02-23T13:44:37;1.70;;;1.60;;
18653;SDS011;9456;47.824;16.228;2024-02-23T13:47:06;1.60;;;1.50;;
18653;SDS011;9456;47.824;16.228;2024-02-23T13:49:35;1.63;;;1.50;;
18653;SDS011;9456;47.824;16.228;2024-02-23T13:52:03;2.60;;;1.50;;
18653;SDS011;9456;47.824;16.228;2024-02-23T13:54:31;1.80;;;1.33;;
18653;SDS011;9456;47.824;16.228;2024-02-23T13:56:59;1.40;;;1.30;;
18653;SDS011;9456;47.824;16.228;2024-02-23T13:59:46;1.50;;;1.40;;
18653;SDS011;9456;47.824;16.228;2024-02-23T14:02:14;1.60;;;1.50;;
18653;SDS011;9456;47.824;16.228;2024-02-23T14:04:42;1.80;;;1.70;;
18653;SDS011;9456;47.824;16.228;2024-02-23T14:07:10;1.57;;;1.47;;
18653;SDS011;9456;47.824;16.228;2024-02-23T14:09:39;1.90;;;1.80;;
18653;SDS011;9456;47.824;16.228;2024-02-23T14:12:07;4.60;;;1.80;;
18653;SDS011;9456;47.824;16.228;2024-02-23T14:14:35;1.53;;;1.43;;
18653;SDS011;9456;47.824;16.228;2024-02-23T14:17:03;1.40;;;1.40;;
18653;SDS011;9456;47.824;16.228;2024-02-23T14:19:32;3.37;;;1.70;;
18653;SDS011;9456;47.824;16.228;2024-02-23T14:22:00;1.77;;;1.67;;
18653;SDS011;9456;47.824;16.228;2024-02-23T14:24:28;2.60;;;2.10;;
18653;SDS011;9456;47.824;16.228;2024-02-23T14:26:59;2.03;;;1.87;;
18653;SDS011;9456;47.824;16.228;2024-02-23T14:29:27;1.90;;;1.80;;
18653;SDS011;9456;47.824;16.228;2024-02-23T14:34:30;2.70;;;2.30;;
18653;SDS011;9456;47.824;16.228;2024-02-23T14:37:10;2.73;;;2.27;;
18653;SDS011;9456;47.824;16.228;2024-02-23T14:39:39;2.20;;;2.00;;
18653;SDS011;9456;47.824;16.228;2024-02-23T14:42:07;2.93;;;1.90;;
18653;SDS011;9456;47.824;16.228;2024-02-23T14:44:37;2.30;;;2.10;;
18653;SDS011;9456;47.824;16.228;2024-02-23T14:47:05;3.53;;;2.30;;
18653;SDS011;9456;47.824;16.228;2024-02-23T14:49:33;2.57;;;2.37;;
18653;SDS011;9456;47.824;16.228;2024-02-23T14:52:01;2.37;;;2.17;;
18653;SDS011;9456;47.824;16.228;2024-02-23T14:57:02;2.40;;;2.30;;
18653;SDS011;9456;47.824;16.228;2024-02-23T14:59:30;2.37;;;2.20;;
18653;SDS011;9456;47.824;16.228;2024-02-23T15:01:58;2.60;;;2.33;;
18653;SDS011;9456;47.824;16.228;2024-02-23T15:04:29;2.97;;;2.77;;
18653;SDS011;9456;47.824;16.228;2024-02-23T15:07:03;2.70;;;2.50;;
18653;SDS011;9456;47.824;16.228;2024-02-23T15:09:33;3.30;;;2.53;;
18653;SDS011;9456;47.824;16.228;2024-02-23T15:12:01;2.60;;;2.40;;
18653;SDS011;9456;47.824;16.228;2024-02-23T15:14:32;2.50;;;2.30;;
18653;SDS011;9456;47.824;16.228;2024-02-23T15:17:00;3.00;;;2.67;;
18653;SDS011;9456;47.824;16.228;2024-02-23T15:19:28;2.63;;;2.43;;
18653;SDS011;9456;47.824;16.228;2024-02-23T15:21:56;2.53;;;2.33;;
18653;SDS011;9456;47.824;16.228;2024-02-23T15:24:25;2.57;;;2.40;;
18653;SDS011;9456;47.824;16.228;2024-02-23T15:26:53;2.43;;;2.33;;
18653;SDS011;9456;47.824;16.228;2024-02-23T15:29:24;2.90;;;2.70;;
18653;SDS011;9456;47.824;16.228;2024-02-23T15:31:53;2.70;;;2.50;;
18653;SDS011;9456;47.824;16.228;2024-02-23T15:34:21;2.97;;;2.73;;
18653;SDS011;9456;47.824;16.228;2024-02-23T15:36:49;3.10;;;2.67;;
18653;SDS011;9456;47.824;16.228;2024-02-23T15:42:07;2.80;;;2.60;;
18653;SDS011;9456;47.824;16.228;2024-02-23T15:44:38;3.10;;;2.90;;
18653;SDS011;9456;47.824;16.228;2024-02-23T15:47:08;3.17;;;2.97;;
18653;SDS011;9456;47.824;16.228;2024-02-23T15:49:37;2.73;;;2.53;;
18653;SDS011;9456;47.824;16.228;2024-02-23T15:55:12;3.13;;;2.83;;
18653;SDS011;9456;47.824;16.228;2024-02-23T15:57:41;3.20;;;2.93;;
18653;SDS011;9456;47.824;16.228;2024-02-23T16:00:10;2.83;;;2.63;;
18653;SDS011;9456;47.824;16.228;2024-02-23T16:02:42;2.73;;;2.53;;
18653;SDS011;9456;47.824;16.228;2024-02-23T16:05:12;3.80;;;3.43;;
18653;SDS011;9456;47.824;16.228;2024-02-23T16:07:41;3.13;;;2.83;;
18653;SDS011;9456;47.824;16.228;2024-02-23T16:10:10;3.33;;;2.90;;
18653;SDS011;9456;47.824;16.228;2024-02-23T16:12:38;4.03;;;2.90;;
18653;SDS011;9456;47.824;16.228;2024-02-23T16:15:08;2.63;;;2.53;;
18653;SDS011;9456;47.824;16.228;2024-02-23T16:17:36;3.27;;;2.97;;
18653;SDS011;9456;47.824;16.228;2024-02-23T16:20:07;3.27;;;2.97;;
18653;SDS011;9456;47.824;16.228;2024-02-23T16:22:35;3.30;;;3.10;;
18653;SDS011;9456;47.824;16.228;2024-02-23T16:25:04;3.47;;;3.17;;
18653;SDS011;9456;47.824;16.228;2024-02-23T16:27:32;3.43;;;3.13;;
18653;SDS011;9456;47.824;16.228;2024-02-23T16:30:10;3.00;;;2.80;;
18653;SDS011;9456;47.824;16.228;2024-02-23T16:32:39;3.27;;;2.90;;
18653;SDS011;9456;47.824;16.228;2024-02-23T16:35:08;3.50;;;3.20;;
18653;SDS011;9456;47.824;16.228;2024-02-23T16:40:28;3.53;;;3.23;;
18653;SDS011;9456;47.824;16.228;2024-02-23T16:42:57;3.60;;;3.30;;
18653;SDS011;9456;47.824;16.228;2024-02-23T16:45:26;4.13;;;3.10;;
18653;SDS011;9456;47.824;16.228;2024-02-23T16:47:55;3.17;;;2.87;;
18653;SDS011;9456;47.824;16.228;2024-02-23T16:50:24;4.60;;;3.60;;
18653;SDS011;9456;47.824;16.228;2024-02-23T16:52:52;4.30;;;3.60;;
18653;SDS011;9456;47.824;16.228;2024-02-23T16:55:22;3.73;;;3.33;;
18653;SDS011;9456;47.824;16.228;2024-02-23T16:57:55;5.07;;;4.27;;
18653;SDS011;9456;47.824;16.228;2024-02-23T17:00:23;4.73;;;4.23;;
18653;SDS011;9456;47.824;16.228;2024-02-23T17:02:51;5.13;;;4.63;;
18653;SDS011;9456;47.824;16.228;2024-02-23T17:05:20;5.77;;;5.20;;
18653;SDS011;9456;47.824;16.228;2024-02-23T17:07:48;5.30;;;4.80;;
18653;SDS011;9456;47.824;16.228;2024-02-23T17:10:17;5.03;;;4.53;;
18653;SDS011;9456;47.824;16.228;2024-02-23T17:15:44;4.40;;;3.97;;
18653;SDS011;9456;47.824;16.228;2024-02-23T17:18:12;4.83;;;4.17;;
18653;SDS011;9456;47.824;16.228;2024-02-23T17:23:45;4.73;;;4.30;;